createdAt,value
2016-08-13T00:00:39.825Z,0
2016-08-13T00:01:39.234Z,0
2016-08-13T00:02:39.850Z,0
2016-08-13T00:03:40.583Z,0
2016-08-13T00:04:40.031Z,0
2016-08-13T00:05:39.929Z,0
2016-08-13T00:06:39.328Z,0
2016-08-13T00:07:38.533Z,0
2016-08-13T00:08:39.288Z,0
2016-08-13T00:09:39.303Z,0
2016-08-13T00:10:39.333Z,0
2016-08-13T00:11:40.069Z,0
2016-08-13T00:12:40.161Z,0
2016-08-13T00:13:40.112Z,0
2016-08-13T00:14:39.418Z,0
2016-08-13T00:15:39.449Z,0
2016-08-13T00:16:40.146Z,0
2016-08-13T00:17:39.496Z,0
2016-08-13T00:18:39.489Z,0
2016-08-13T00:19:40.294Z,0
2016-08-13T00:20:40.953Z,0
2016-08-13T00:21:39.563Z,0
2016-08-13T00:22:40.272Z,0
2016-08-13T00:23:40.304Z,0
2016-08-13T00:24:39.623Z,0
2016-08-13T00:25:40.323Z,0
2016-08-13T00:26:40.374Z,0
2016-08-13T00:27:38.962Z,0
2016-08-13T00:28:41.103Z,0
2016-08-13T00:29:39.734Z,0
2016-08-13T00:30:40.526Z,0
2016-08-13T00:31:40.452Z,0
2016-08-13T00:32:40.612Z,0
2016-08-13T00:33:40.594Z,0
2016-08-13T00:34:39.824Z,0
2016-08-13T00:35:40.542Z,0
2016-08-13T00:36:39.864Z,0
2016-08-13T00:37:39.168Z,0
2016-08-13T00:38:39.903Z,0
2016-08-13T00:39:40.024Z,0
2016-08-13T00:40:40.643Z,0
2016-08-13T00:41:40.775Z,0
2016-08-13T00:42:40.703Z,0
2016-08-13T00:43:39.311Z,0
2016-08-13T00:44:40.746Z,0
2016-08-13T00:45:40.744Z,0
2016-08-13T00:46:40.128Z,0
2016-08-13T00:47:41.503Z,0
2016-08-13T00:48:39.403Z,0
2016-08-13T00:49:39.423Z,0
2016-08-13T00:50:40.151Z,0
2016-08-13T00:51:40.183Z,0
2016-08-13T00:52:41.074Z,0
2016-08-13T00:53:38.922Z,0
2016-08-13T00:54:40.362Z,0
2016-08-13T00:55:40.246Z,0
2016-08-13T00:56:41.205Z,0
2016-08-13T00:57:39.631Z,0
2016-08-13T00:58:41.051Z,0
2016-08-13T00:59:39.711Z,0
2016-08-13T01:00:39.742Z,0
2016-08-13T01:01:39.692Z,0
2016-08-13T01:02:41.822Z,0
2016-08-13T01:03:41.240Z,0
2016-08-13T01:04:39.753Z,0
2016-08-13T01:05:41.923Z,0
2016-08-13T01:06:40.472Z,0
2016-08-13T01:07:41.214Z,0
2016-08-13T01:08:39.850Z,0
2016-08-13T01:09:41.324Z,0
2016-08-13T01:10:41.281Z,0
2016-08-13T01:11:41.324Z,0
2016-08-13T01:12:41.341Z,0
2016-08-13T01:13:42.090Z,0
2016-08-13T01:14:42.085Z,0
2016-08-13T01:15:41.372Z,0
2016-08-13T01:16:41.522Z,0
2016-08-13T01:17:40.061Z,0
2016-08-13T01:18:41.511Z,0
2016-08-13T01:19:42.164Z,0
2016-08-13T01:20:40.102Z,0
2016-08-13T01:21:42.218Z,0
2016-08-13T01:22:42.380Z,0
2016-08-13T01:23:42.239Z,0
2016-08-13T01:24:40.156Z,0
2016-08-13T01:25:40.241Z,0
2016-08-13T01:26:41.618Z,0
2016-08-13T01:27:41.638Z,0
2016-08-13T01:28:41.652Z,0
2016-08-13T01:29:42.373Z,0
2016-08-13T01:30:42.405Z,0
2016-08-13T01:31:42.547Z,0
2016-08-13T01:32:41.742Z,0
2016-08-13T01:33:41.767Z,0
2016-08-13T01:34:41.083Z,0
2016-08-13T01:35:41.842Z,0
2016-08-13T01:36:42.518Z,0
2016-08-13T01:37:41.839Z,0
2016-08-13T01:38:40.561Z,0
2016-08-13T01:39:42.601Z,0
2016-08-13T01:40:41.221Z,0
2016-08-13T01:41:41.942Z,0
2016-08-13T01:42:42.736Z,0
2016-08-13T01:43:42.666Z,0
2016-08-13T01:44:42.044Z,0
2016-08-13T01:45:42.032Z,0
2016-08-13T01:46:42.811Z,0
2016-08-13T01:47:42.754Z,0
2016-08-13T01:48:41.372Z,0
2016-08-13T01:49:42.112Z,0
2016-08-13T01:50:42.124Z,0
2016-08-13T01:51:41.432Z,0
2016-08-13T01:52:41.522Z,0
2016-08-13T01:53:41.493Z,0
2016-08-13T01:54:42.915Z,0
2016-08-13T01:55:42.923Z,0
2016-08-13T01:56:40.831Z,0
2016-08-13T01:57:42.262Z,0
2016-08-13T01:58:42.285Z,0
2016-08-13T01:59:41.602Z,0
2016-08-13T02:00:43.033Z,0
2016-08-13T02:01:43.071Z,0
2016-08-13T02:02:41.663Z,0
2016-08-13T02:03:42.373Z,0
2016-08-13T02:04:42.409Z,0
2016-08-13T02:05:41.753Z,0
2016-08-13T02:06:42.448Z,0
2016-08-13T02:07:41.871Z,0
2016-08-13T02:08:41.797Z,0
2016-08-13T02:09:42.519Z,0
2016-08-13T02:10:43.282Z,0
2016-08-13T02:11:42.547Z,0
2016-08-13T02:12:41.200Z,0
2016-08-13T02:13:41.299Z,0
2016-08-13T02:14:41.201Z,0
2016-08-13T02:15:42.641Z,0
2016-08-13T02:16:41.960Z,0
2016-08-13T02:17:42.682Z,0
2016-08-13T02:18:42.698Z,0
2016-08-13T02:19:42.916Z,0
2016-08-13T02:20:43.441Z,0
2016-08-13T02:21:41.383Z,0
2016-08-13T02:22:43.501Z,0
2016-08-13T02:23:42.109Z,0
2016-08-13T02:24:43.572Z,0
2016-08-13T02:25:42.201Z,0
2016-08-13T02:26:42.173Z,0
2016-08-13T02:27:42.182Z,0
2016-08-13T02:28:42.269Z,0
2016-08-13T02:29:42.212Z,0
2016-08-13T02:30:40.841Z,0
2016-08-13T02:31:42.272Z,0
2016-08-13T02:32:42.292Z,0
2016-08-13T02:33:42.390Z,0
2016-08-13T02:34:41.721Z,0
2016-08-13T02:35:42.347Z,0
2016-08-13T02:36:42.376Z,0
2016-08-13T02:37:43.841Z,0
2016-08-13T02:38:42.448Z,0
2016-08-13T02:39:43.881Z,0
2016-08-13T02:40:42.455Z,0
2016-08-13T02:41:42.512Z,0
2016-08-13T02:42:43.213Z,0
2016-08-13T02:43:43.245Z,0
2016-08-13T02:44:42.552Z,0
2016-08-13T02:45:43.292Z,0
2016-08-13T02:46:43.320Z,0
2016-08-13T02:47:43.342Z,0
2016-08-13T02:48:42.081Z,0
2016-08-13T02:49:43.380Z,0
2016-08-13T02:50:42.672Z,0
2016-08-13T02:51:42.685Z,0
2016-08-13T02:52:43.571Z,0
2016-08-13T02:53:42.733Z,0
2016-08-13T02:54:43.653Z,0
2016-08-13T02:55:43.491Z,0
2016-08-13T02:56:42.340Z,0
2016-08-13T02:57:42.803Z,0
2016-08-13T02:58:44.381Z,0
2016-08-13T02:59:43.567Z,0
2016-08-13T03:00:42.906Z,0
2016-08-13T03:01:44.328Z,0
2016-08-13T03:02:43.752Z,0
2016-08-13T03:03:43.042Z,0
2016-08-13T03:04:44.392Z,0
2016-08-13T03:05:43.001Z,0
2016-08-13T03:06:43.728Z,0
2016-08-13T03:07:44.672Z,0
2016-08-13T03:08:43.054Z,0
2016-08-13T03:09:42.421Z,0
2016-08-13T03:10:43.078Z,0
2016-08-13T03:11:42.434Z,0
2016-08-13T03:12:43.842Z,0
2016-08-13T03:13:43.872Z,0
2016-08-13T03:14:44.608Z,0
2016-08-13T03:15:44.611Z,0
2016-08-13T03:16:42.552Z,0
2016-08-13T03:17:43.344Z,0
2016-08-13T03:18:44.165Z,0
2016-08-13T03:19:44.713Z,0
2016-08-13T03:20:44.911Z,0
2016-08-13T03:21:42.715Z,0
2016-08-13T03:22:44.061Z,0
2016-08-13T03:23:43.367Z,0
2016-08-13T03:24:43.380Z,0
2016-08-13T03:25:44.103Z,0
2016-08-13T03:26:44.150Z,0
2016-08-13T03:27:44.171Z,0
2016-08-13T03:28:42.051Z,0
2016-08-13T03:29:44.907Z,0
2016-08-13T03:30:43.523Z,0
2016-08-13T03:31:44.312Z,0
2016-08-13T03:32:43.580Z,0
2016-08-13T03:33:45.002Z,0
2016-08-13T03:34:42.902Z,0
2016-08-13T03:35:44.354Z,0
2016-08-13T03:36:42.920Z,0
2016-08-13T03:37:43.663Z,0
2016-08-13T03:38:43.704Z,0
2016-08-13T03:39:43.691Z,0
2016-08-13T03:40:43.049Z,0
2016-08-13T03:41:43.821Z,0
2016-08-13T03:42:45.192Z,0
2016-08-13T03:43:44.490Z,0
2016-08-13T03:44:44.651Z,0
2016-08-13T03:45:43.841Z,0
2016-08-13T03:46:44.563Z,0
2016-08-13T03:47:44.600Z,5
2016-08-13T03:48:43.891Z,5
2016-08-13T03:49:43.923Z,5
2016-08-13T03:50:44.643Z,5
2016-08-13T03:51:44.804Z,5
2016-08-13T03:52:45.443Z,5
2016-08-13T03:53:45.403Z,5
2016-08-13T03:54:44.053Z,5
2016-08-13T03:55:45.463Z,10
2016-08-13T03:56:45.491Z,10
2016-08-13T03:57:44.953Z,10
2016-08-13T03:58:45.507Z,10
2016-08-13T03:59:44.988Z,10
2016-08-13T04:00:44.921Z,10
2016-08-13T04:01:44.907Z,10
2016-08-13T04:02:44.889Z,10
2016-08-13T04:03:44.213Z,15
2016-08-13T04:04:45.634Z,15
2016-08-13T04:05:44.967Z,15
2016-08-13T04:06:45.012Z,20
2016-08-13T04:07:44.312Z,20
2016-08-13T04:08:44.324Z,20
2016-08-13T04:09:44.331Z,25
2016-08-13T04:10:44.433Z,25
2016-08-13T04:11:45.783Z,25
2016-08-13T04:12:43.703Z,30
2016-08-13T04:13:45.133Z,30
2016-08-13T04:14:45.171Z,30
2016-08-13T04:15:45.883Z,35
2016-08-13T04:16:45.891Z,35
2016-08-13T04:17:44.542Z,35
2016-08-13T04:18:44.533Z,40
2016-08-13T04:19:44.583Z,40
2016-08-13T04:20:46.003Z,40
2016-08-13T04:21:45.424Z,45
2016-08-13T04:22:44.624Z,45
2016-08-13T04:23:45.352Z,45
2016-08-13T04:24:43.973Z,45
2016-08-13T04:25:44.123Z,50
2016-08-13T04:26:44.712Z,50
2016-08-13T04:27:44.804Z,50
2016-08-13T04:28:45.432Z,50
2016-08-13T04:29:45.504Z,55
2016-08-13T04:30:45.063Z,60
2016-08-13T04:31:45.524Z,60
2016-08-13T04:32:45.623Z,65
2016-08-13T04:33:45.564Z,70
2016-08-13T04:34:44.934Z,75
2016-08-13T04:35:44.894Z,80
2016-08-13T04:36:44.926Z,80
2016-08-13T04:37:46.354Z,85
2016-08-13T04:38:44.399Z,85
2016-08-13T04:39:44.961Z,90
2016-08-13T04:40:45.790Z,90
2016-08-13T04:41:46.434Z,95
2016-08-13T04:42:45.254Z,95
2016-08-13T04:43:44.351Z,95
2016-08-13T04:44:44.532Z,95
2016-08-13T04:45:44.582Z,95
2016-08-13T04:46:44.534Z,100
2016-08-13T04:47:45.224Z,105
2016-08-13T04:48:45.173Z,120
2016-08-13T04:49:44.554Z,130
2016-08-13T04:50:44.502Z,135
2016-08-13T04:51:44.540Z,145
2016-08-13T04:52:43.897Z,150
2016-08-13T04:53:45.988Z,150
2016-08-13T04:54:46.054Z,155
2016-08-13T04:55:45.303Z,155
2016-08-13T04:56:46.104Z,150
2016-08-13T04:57:44.844Z,155
2016-08-13T04:58:44.785Z,170
2016-08-13T04:59:44.764Z,175
2016-08-13T05:00:46.844Z,180
2016-08-13T05:01:46.852Z,190
2016-08-13T05:02:45.464Z,205
2016-08-13T05:03:46.195Z,205
2016-08-13T05:04:46.259Z,210
2016-08-13T05:05:45.600Z,215
2016-08-13T05:06:46.973Z,220
2016-08-13T05:07:45.681Z,215
2016-08-13T05:08:47.000Z,225
2016-08-13T05:09:46.332Z,235
2016-08-13T05:11:18.652Z,245
2016-08-13T05:11:47.113Z,245
2016-08-13T05:12:47.073Z,250
2016-08-13T05:13:46.429Z,265
2016-08-13T05:14:45.745Z,275
2016-08-13T05:15:45.042Z,285
2016-08-13T05:16:47.192Z,300
2016-08-13T05:17:46.528Z,315
2016-08-13T05:18:45.799Z,310
2016-08-13T05:19:46.534Z,275
2016-08-13T05:20:45.991Z,255
2016-08-13T05:21:45.903Z,275
2016-08-13T05:22:46.685Z,330
2016-08-13T05:23:45.933Z,380
2016-08-13T05:24:46.704Z,395
2016-08-13T05:25:46.694Z,460
2016-08-13T05:26:46.747Z,545
2016-08-13T05:27:47.549Z,555
2016-08-13T05:28:47.751Z,700
2016-08-13T05:29:47.742Z,645
2016-08-13T05:30:47.832Z,550
2016-08-13T05:31:46.242Z,595
2016-08-13T05:32:45.486Z,390
2016-08-13T05:33:46.895Z,545
2016-08-13T05:34:47.720Z,410
2016-08-13T05:35:47.630Z,350
2016-08-13T05:36:47.675Z,370
2016-08-13T05:37:46.998Z,290
2016-08-13T05:38:47.683Z,220
2016-08-13T05:39:47.082Z,185
2016-08-13T05:40:47.906Z,180
2016-08-13T05:41:47.793Z,160
2016-08-13T05:42:46.405Z,140
2016-08-13T05:43:47.115Z,135
2016-08-13T05:44:47.125Z,140
2016-08-13T05:45:46.465Z,125
2016-08-13T05:46:47.215Z,110
2016-08-13T05:47:47.214Z,100
2016-08-13T05:48:46.635Z,85
2016-08-13T05:49:47.348Z,80
2016-08-13T05:50:47.288Z,75
2016-08-13T05:51:47.331Z,75
2016-08-13T05:52:48.100Z,65
2016-08-13T05:53:47.366Z,70
2016-08-13T05:54:47.396Z,60
2016-08-13T05:55:47.440Z,60
2016-08-13T05:56:46.716Z,60
2016-08-13T05:57:46.764Z,55
2016-08-13T05:58:46.805Z,60
2016-08-13T05:59:47.501Z,60
2016-08-13T06:00:47.524Z,55
2016-08-13T06:01:47.753Z,55
2016-08-13T06:02:46.261Z,55
2016-08-13T06:03:48.325Z,60
2016-08-13T06:04:47.775Z,70
2016-08-13T06:05:47.774Z,80
2016-08-13T06:06:47.808Z,105
2016-08-13T06:07:48.388Z,110
2016-08-13T06:08:47.813Z,120
2016-08-13T06:09:47.779Z,120
2016-08-13T06:10:47.834Z,120
2016-08-13T06:11:47.353Z,125
2016-08-13T06:12:47.896Z,130
2016-08-13T06:13:48.545Z,140
2016-08-13T06:14:47.866Z,150
2016-08-13T06:15:48.604Z,135
2016-08-13T06:16:47.897Z,155
2016-08-13T06:17:47.286Z,170
2016-08-13T06:18:48.637Z,170
2016-08-13T06:19:47.993Z,155
2016-08-13T06:20:47.274Z,180
2016-08-13T06:21:48.107Z,185
2016-08-13T06:22:48.735Z,170
2016-08-13T06:23:48.173Z,185
2016-08-13T06:24:48.965Z,170
2016-08-13T06:25:48.953Z,170
2016-08-13T06:26:46.734Z,155
2016-08-13T06:27:48.139Z,135
2016-08-13T06:28:49.039Z,115
2016-08-13T06:29:48.222Z,125
2016-08-13T06:30:48.345Z,115
2016-08-13T06:31:48.253Z,130
2016-08-13T06:32:49.033Z,130
2016-08-13T06:33:48.996Z,155
2016-08-13T06:34:48.410Z,170
2016-08-13T06:35:46.963Z,150
2016-08-13T06:36:48.473Z,170
2016-08-13T06:37:47.695Z,205
2016-08-13T06:38:47.700Z,180
2016-08-13T06:39:46.992Z,190
2016-08-13T06:40:48.432Z,170
2016-08-13T06:41:47.042Z,200
2016-08-13T06:42:47.774Z,210
2016-08-13T06:43:47.990Z,200
2016-08-13T06:44:49.520Z,205
2016-08-13T06:45:47.305Z,210
2016-08-13T06:46:48.028Z,260
2016-08-13T06:47:47.360Z,220
2016-08-13T06:48:48.952Z,250
2016-08-13T06:49:48.051Z,260
2016-08-13T06:50:48.786Z,290
2016-08-13T06:51:48.799Z,260
2016-08-13T06:52:48.981Z,330
2016-08-13T06:53:48.746Z,485
2016-08-13T06:54:49.492Z,520
2016-08-13T06:55:47.494Z,520
2016-08-13T06:56:49.280Z,450
2016-08-13T06:57:48.137Z,510
2016-08-13T06:58:48.173Z,470
2016-08-13T06:59:48.916Z,870
2016-08-13T07:00:48.929Z,605
2016-08-13T07:01:48.265Z,915
2016-08-13T07:02:48.263Z,1185
2016-08-13T07:03:49.048Z,1185
2016-08-13T07:04:48.317Z,1310
2016-08-13T07:05:49.804Z,1270
2016-08-13T07:06:49.805Z,1545
2016-08-13T07:07:49.226Z,920
2016-08-13T07:08:48.473Z,710
2016-08-13T07:09:49.255Z,715
2016-08-13T07:10:49.863Z,1200
2016-08-13T07:11:49.185Z,865
2016-08-13T07:12:49.946Z,1065
2016-08-13T07:13:49.966Z,655
2016-08-13T07:14:49.361Z,550
2016-08-13T07:15:49.297Z,570
2016-08-13T07:16:49.365Z,605
2016-08-13T07:17:50.028Z,480
2016-08-13T07:18:49.494Z,655
2016-08-13T07:19:48.230Z,545
2016-08-13T07:20:49.539Z,510
2016-08-13T07:21:48.853Z,535
2016-08-13T07:22:49.476Z,1035
2016-08-13T07:23:48.986Z,950
2016-08-13T07:24:49.532Z,635
2016-08-13T07:25:50.358Z,1370
2016-08-13T07:26:49.596Z,1385
2016-08-13T07:27:49.116Z,1140
2016-08-13T07:28:49.649Z,1365
2016-08-13T07:29:49.686Z,1165
2016-08-13T07:30:49.081Z,900
2016-08-13T07:31:49.042Z,705
2016-08-13T07:32:50.486Z,935
2016-08-13T07:33:49.787Z,1065
2016-08-13T07:34:49.886Z,1165
2016-08-13T07:35:49.280Z,615
2016-08-13T07:36:50.591Z,1100
2016-08-13T07:37:49.199Z,535
2016-08-13T07:38:49.213Z,565
2016-08-13T07:39:49.276Z,1055
2016-08-13T07:40:50.016Z,1070
2016-08-13T07:41:49.358Z,995
2016-08-13T07:42:50.034Z,1135
2016-08-13T07:43:50.073Z,1100
2016-08-13T07:44:48.777Z,1310
2016-08-13T07:45:49.466Z,545
2016-08-13T07:46:50.177Z,480
2016-08-13T07:47:49.493Z,1305
2016-08-13T07:48:49.519Z,1690
2016-08-13T07:49:50.266Z,795
2016-08-13T07:50:48.899Z,1365
2016-08-13T07:51:49.610Z,625
2016-08-13T07:52:50.352Z,655
2016-08-13T07:53:50.520Z,1305
2016-08-13T07:54:50.424Z,875
2016-08-13T07:55:50.447Z,735
2016-08-13T07:56:49.875Z,1230
2016-08-13T07:57:51.280Z,1230
2016-08-13T07:58:49.825Z,665
2016-08-13T07:59:49.875Z,1100
2016-08-13T08:00:49.893Z,1160
2016-08-13T08:01:49.990Z,720
2016-08-13T08:02:51.400Z,825
2016-08-13T08:03:49.432Z,725
2016-08-13T08:04:51.441Z,755
2016-08-13T08:05:50.839Z,760
2016-08-13T08:06:50.055Z,830
2016-08-13T08:07:51.533Z,860
2016-08-13T08:08:50.115Z,800
2016-08-13T08:09:50.275Z,810
2016-08-13T08:10:51.595Z,700
2016-08-13T08:11:50.943Z,730
2016-08-13T08:12:51.054Z,705
2016-08-13T08:13:50.995Z,610
2016-08-13T08:14:50.293Z,530
2016-08-13T08:15:50.323Z,555
2016-08-13T08:16:51.796Z,490
2016-08-13T08:17:51.103Z,410
2016-08-13T08:18:51.285Z,385
2016-08-13T08:19:51.867Z,290
2016-08-13T08:20:51.199Z,245
2016-08-13T08:21:51.943Z,230
2016-08-13T08:22:50.744Z,245
2016-08-13T08:23:51.982Z,265
2016-08-13T08:24:49.879Z,270
2016-08-13T08:25:51.531Z,340
2016-08-13T08:26:52.073Z,315
2016-08-13T08:27:52.072Z,270
2016-08-13T08:29:23.016Z,260
2016-08-13T08:29:50.785Z,270
2016-08-13T08:30:51.533Z,395
2016-08-13T08:31:51.500Z,455
2016-08-13T08:32:51.554Z,435
2016-08-13T08:33:52.244Z,440
2016-08-13T08:34:52.312Z,510
2016-08-13T08:35:52.329Z,555
2016-08-13T08:36:51.632Z,580
2016-08-13T08:37:52.393Z,550
2016-08-13T08:38:51.711Z,510
2016-08-13T08:39:52.444Z,510
2016-08-13T08:40:52.446Z,560
2016-08-13T08:41:51.904Z,600
2016-08-13T08:42:52.004Z,610
2016-08-13T08:43:50.433Z,635
2016-08-13T08:44:52.539Z,630
2016-08-13T08:45:51.929Z,605
2016-08-13T08:46:52.644Z,530
2016-08-13T08:47:51.234Z,410
2016-08-13T08:48:52.693Z,390
2016-08-13T08:49:52.778Z,430
2016-08-13T08:50:52.201Z,385
2016-08-13T08:51:52.777Z,305
2016-08-13T08:52:52.105Z,290
2016-08-13T08:53:52.800Z,325
2016-08-13T08:54:52.164Z,385
2016-08-13T08:55:52.142Z,325
2016-08-13T08:56:51.585Z,360
2016-08-13T08:57:52.203Z,535
2016-08-13T08:58:52.241Z,620
2016-08-13T08:59:52.266Z,635
2016-08-13T09:00:52.278Z,655
2016-08-13T09:01:53.007Z,650
2016-08-13T09:02:52.384Z,600
2016-08-13T09:03:52.364Z,575
2016-08-13T09:04:52.365Z,540
2016-08-13T09:05:52.504Z,475
2016-08-13T09:06:52.434Z,430
2016-08-13T09:07:53.174Z,415
2016-08-13T09:08:53.200Z,430
2016-08-13T09:09:51.898Z,415
2016-08-13T09:10:53.284Z,405
2016-08-13T09:11:53.480Z,320
2016-08-13T09:12:53.316Z,365
2016-08-13T09:13:53.390Z,425
2016-08-13T09:14:52.634Z,425
2016-08-13T09:15:52.674Z,450
2016-08-13T09:16:52.736Z,490
2016-08-13T09:17:53.424Z,510
2016-08-13T09:18:52.949Z,475
2016-08-13T09:19:52.808Z,470
2016-08-13T09:20:52.813Z,520
2016-08-13T09:21:52.831Z,580
2016-08-13T09:22:53.564Z,555
2016-08-13T09:23:52.873Z,570
2016-08-13T09:24:52.952Z,565
2016-08-13T09:25:52.929Z,630
2016-08-13T09:26:52.285Z,705
2016-08-13T09:27:52.361Z,680
2016-08-13T09:28:53.723Z,675
2016-08-13T09:29:53.772Z,720
2016-08-13T09:30:52.341Z,675
2016-08-13T09:31:52.383Z,550
2016-08-13T09:32:52.522Z,540
2016-08-13T09:33:52.454Z,560
2016-08-13T09:34:52.561Z,545
2016-08-13T09:35:53.182Z,620
2016-08-13T09:36:53.244Z,595
2016-08-13T09:37:53.256Z,445
2016-08-13T09:38:52.555Z,410
2016-08-13T09:39:54.035Z,470
2016-08-13T09:40:53.454Z,410
2016-08-13T09:41:52.712Z,415
2016-08-13T09:42:52.688Z,475
2016-08-13T09:43:53.418Z,475
2016-08-13T09:44:52.743Z,500
2016-08-13T09:45:52.998Z,525
2016-08-13T09:46:54.212Z,525
2016-08-13T09:47:54.232Z,495
2016-08-13T09:48:53.559Z,545
2016-08-13T09:49:53.644Z,590
2016-08-13T09:50:52.900Z,590
2016-08-13T09:51:54.458Z,540
2016-08-13T09:52:53.708Z,570
2016-08-13T09:53:52.980Z,605
2016-08-13T09:54:53.710Z,625
2016-08-13T09:55:52.335Z,605
2016-08-13T09:56:54.484Z,540
2016-08-13T09:57:53.164Z,475
2016-08-13T09:58:53.931Z,445
2016-08-13T09:59:53.142Z,485
2016-08-13T10:00:53.181Z,550
2016-08-13T10:01:53.182Z,535
2016-08-13T10:02:53.929Z,540
2016-08-13T10:03:55.028Z,520
2016-08-13T10:04:54.242Z,505
2016-08-13T10:05:54.834Z,465
2016-08-13T10:06:54.983Z,545
2016-08-13T10:07:54.772Z,600
2016-08-13T10:08:54.161Z,655
2016-08-13T10:09:54.946Z,630
2016-08-13T10:10:54.252Z,545
2016-08-13T10:11:53.471Z,460
2016-08-13T10:12:54.908Z,475
2016-08-13T10:13:53.520Z,425
2016-08-13T10:14:52.122Z,415
2016-08-13T10:15:54.272Z,470
2016-08-13T10:17:25.172Z,500
2016-08-13T10:17:55.082Z,475
2016-08-13T10:18:52.931Z,440
2016-08-13T10:19:55.153Z,425
2016-08-13T10:20:53.703Z,460
2016-08-13T10:21:54.422Z,455
2016-08-13T10:22:54.465Z,415
2016-08-13T10:23:53.804Z,390
2016-08-13T10:24:55.243Z,385
2016-08-13T10:25:55.242Z,435
2016-08-13T10:26:54.577Z,390
2016-08-13T10:27:54.594Z,385
2016-08-13T10:28:54.661Z,385
2016-08-13T10:29:53.952Z,375
2016-08-13T10:30:54.692Z,370
2016-08-13T10:31:54.701Z,395
2016-08-13T10:32:54.262Z,410
2016-08-13T10:33:54.322Z,370
2016-08-13T10:34:54.933Z,335
2016-08-13T10:35:54.112Z,340
2016-08-13T10:36:55.532Z,355
2016-08-13T10:37:54.974Z,360
2016-08-13T10:38:54.280Z,345
2016-08-13T10:39:54.263Z,370
2016-08-13T10:40:55.662Z,350
2016-08-13T10:41:54.995Z,365
2016-08-13T10:42:55.709Z,400
2016-08-13T10:43:54.327Z,425
2016-08-13T10:44:55.152Z,480
2016-08-13T10:45:55.099Z,490
2016-08-13T10:46:55.280Z,505
2016-08-13T10:47:55.121Z,500
2016-08-13T10:48:55.271Z,490
2016-08-13T10:49:54.590Z,535
2016-08-13T10:50:54.516Z,555
2016-08-13T10:51:55.951Z,460
2016-08-13T10:52:56.012Z,370
2016-08-13T10:53:55.420Z,330
2016-08-13T10:54:56.042Z,340
2016-08-13T10:55:54.632Z,410
2016-08-13T10:56:54.680Z,460
2016-08-13T10:57:55.430Z,495
2016-08-13T10:58:54.032Z,500
2016-08-13T10:59:54.776Z,475
2016-08-13T11:00:55.618Z,480
2016-08-13T11:01:55.507Z,460
2016-08-13T11:02:54.893Z,410
2016-08-13T11:03:56.320Z,365
2016-08-13T11:04:56.305Z,355
2016-08-13T11:05:55.610Z,330
2016-08-13T11:06:55.662Z,280
2016-08-13T11:07:55.703Z,255
2016-08-13T11:08:56.412Z,265
2016-08-13T11:09:55.012Z,240
2016-08-13T11:10:55.762Z,225
2016-08-13T11:11:55.940Z,230
2016-08-13T11:12:55.813Z,305
2016-08-13T11:13:55.260Z,365
2016-08-13T11:14:55.856Z,385
2016-08-13T11:15:54.559Z,410
2016-08-13T11:16:55.930Z,370
2016-08-13T11:17:55.374Z,345
2016-08-13T11:18:56.663Z,355
2016-08-13T11:19:56.714Z,440
2016-08-13T11:20:56.732Z,495
2016-08-13T11:21:56.948Z,495
2016-08-13T11:22:55.482Z,520
2016-08-13T11:23:54.671Z,550
2016-08-13T11:24:55.583Z,590
2016-08-13T11:25:56.149Z,605
2016-08-13T11:26:54.858Z,595
2016-08-13T11:27:56.222Z,535
2016-08-13T11:28:56.326Z,385
2016-08-13T11:29:56.250Z,370
2016-08-13T11:30:56.299Z,350
2016-08-13T11:31:57.018Z,360
2016-08-13T11:32:56.377Z,370
2016-08-13T11:33:56.341Z,360
2016-08-13T11:34:57.155Z,335
2016-08-13T11:35:57.128Z,340
2016-08-13T11:36:55.242Z,395
2016-08-13T11:38:28.043Z,505
2016-08-13T11:38:56.508Z,530
2016-08-13T11:39:55.813Z,550
2016-08-13T11:40:55.829Z,570
2016-08-13T11:41:55.883Z,570
2016-08-13T11:42:56.583Z,505
2016-08-13T11:43:56.631Z,490
2016-08-13T11:44:56.662Z,495
2016-08-13T11:45:56.682Z,505
2016-08-13T11:46:57.531Z,485
2016-08-13T11:47:57.489Z,485
2016-08-13T11:48:57.551Z,510
2016-08-13T11:49:56.820Z,515
2016-08-13T11:50:57.728Z,555
2016-08-13T11:51:56.862Z,590
2016-08-13T11:52:56.234Z,630
2016-08-13T11:53:57.016Z,665
2016-08-13T11:54:56.212Z,680
2016-08-13T11:55:56.252Z,605
2016-08-13T11:56:57.712Z,480
2016-08-13T11:57:57.018Z,425
2016-08-13T11:58:57.772Z,360
2016-08-13T11:59:57.062Z,395
2016-08-13T12:00:56.390Z,555
2016-08-13T12:01:57.938Z,645
2016-08-13T12:02:56.552Z,670
2016-08-13T12:03:57.972Z,660
2016-08-13T12:04:57.202Z,605
2016-08-13T12:05:57.240Z,590
2016-08-13T12:06:59.663Z,510
2016-08-13T12:07:57.994Z,430
2016-08-13T12:08:58.069Z,425
2016-08-13T12:09:57.495Z,485
2016-08-13T12:10:58.473Z,520
2016-08-13T12:11:57.539Z,550
2016-08-13T12:12:57.694Z,575
2016-08-13T12:13:57.564Z,605
2016-08-13T12:14:58.306Z,610
2016-08-13T12:15:56.120Z,590
2016-08-13T12:16:57.647Z,565
2016-08-13T12:17:57.632Z,490
2016-08-13T12:18:56.904Z,500
2016-08-13T12:19:56.961Z,505
2016-08-13T12:20:56.293Z,490
2016-08-13T12:21:56.955Z,510
2016-08-13T12:22:57.123Z,545
2016-08-13T12:23:57.768Z,530
2016-08-13T12:24:57.738Z,565
2016-08-13T12:25:57.809Z,595
2016-08-13T12:26:57.415Z,590
2016-08-13T12:27:57.843Z,560
2016-08-13T12:28:57.892Z,525
2016-08-13T12:29:57.907Z,465
2016-08-13T12:30:57.236Z,435
2016-08-13T12:31:57.252Z,410
2016-08-13T12:32:58.041Z,370
2016-08-13T12:33:56.727Z,340
2016-08-13T12:34:58.030Z,335
2016-08-13T12:35:57.381Z,360
2016-08-13T12:36:58.101Z,345
2016-08-13T12:37:57.573Z,320
2016-08-13T12:38:58.951Z,310
2016-08-13T12:39:58.284Z,325
2016-08-13T12:40:57.729Z,355
2016-08-13T12:41:57.043Z,380
2016-08-13T12:42:58.792Z,400
2016-08-13T12:43:57.724Z,390
2016-08-13T12:44:58.300Z,360
2016-08-13T12:45:57.737Z,340
2016-08-13T12:46:59.138Z,330
2016-08-13T12:47:59.123Z,340
2016-08-13T12:48:58.473Z,365
2016-08-13T12:49:58.445Z,395
2016-08-13T12:50:58.483Z,435
2016-08-13T12:51:59.232Z,470
2016-08-13T12:52:58.603Z,485
2016-08-13T12:53:58.564Z,485
2016-08-13T12:54:59.374Z,470
2016-08-13T12:55:57.899Z,465
2016-08-13T12:56:57.922Z,485
2016-08-13T12:57:58.043Z,480
2016-08-13T12:58:59.400Z,450
2016-08-13T12:59:58.084Z,425
2016-08-13T13:00:58.046Z,410
2016-08-13T13:01:58.839Z,405
2016-08-13T13:02:58.783Z,380
2016-08-13T13:03:59.585Z,335
2016-08-13T13:04:58.876Z,315
2016-08-13T13:05:58.883Z,300
2016-08-13T13:06:57.516Z,325
2016-08-13T13:07:58.911Z,340
2016-08-13T13:08:57.551Z,335
2016-08-13T13:09:59.693Z,300
2016-08-13T13:10:59.962Z,280
2016-08-13T13:11:59.765Z,285
2016-08-13T13:13:00.004Z,300
2016-08-13T13:13:58.423Z,340
2016-08-13T13:15:00.005Z,390
2016-08-13T13:16:00.055Z,410
2016-08-13T13:16:59.996Z,405
2016-08-13T13:18:00.024Z,380
2016-08-13T13:19:00.134Z,335
2016-08-13T13:20:00.064Z,300
2016-08-13T13:21:00.135Z,250
2016-08-13T13:22:00.047Z,235
2016-08-13T13:22:58.775Z,205
2016-08-13T13:24:00.084Z,180
2016-08-13T13:24:59.415Z,170
2016-08-13T13:26:00.235Z,170
2016-08-13T13:26:58.724Z,175
2016-08-13T13:28:00.174Z,190
2016-08-13T13:29:00.235Z,205
2016-08-13T13:30:00.229Z,230
2016-08-13T13:30:59.788Z,235
2016-08-13T13:32:00.274Z,215
2016-08-13T13:32:59.074Z,210
2016-08-13T13:33:59.635Z,210
2016-08-13T13:35:00.356Z,200
2016-08-13T13:35:58.975Z,200
2016-08-13T13:36:59.726Z,200
2016-08-13T13:37:59.724Z,220
2016-08-13T13:38:59.765Z,225
2016-08-13T13:40:00.536Z,230
2016-08-13T13:41:00.583Z,235
2016-08-13T13:41:59.293Z,250
2016-08-13T13:43:00.570Z,275
2016-08-13T13:44:00.167Z,345
2016-08-13T13:44:59.905Z,415
2016-08-13T13:46:00.724Z,440
2016-08-13T13:47:00.134Z,405
2016-08-13T13:48:00.187Z,345
2016-08-13T13:49:00.168Z,310
2016-08-13T13:50:00.354Z,315
2016-08-13T13:50:59.505Z,325
2016-08-13T13:52:00.191Z,335
2016-08-13T13:53:00.217Z,325
2016-08-13T13:53:59.435Z,330
2016-08-13T13:55:00.255Z,340
2016-08-13T13:55:59.495Z,320
2016-08-13T13:57:01.023Z,305
2016-08-13T13:58:00.272Z,295
2016-08-13T13:59:00.292Z,305
2016-08-13T13:59:59.676Z,330
2016-08-13T14:01:00.317Z,310
2016-08-13T14:02:00.377Z,305
2016-08-13T14:03:00.401Z,290
2016-08-13T14:04:01.146Z,260